Time;durP1;ratioP1;P1;durP2;ratioP2;P2;SDS_P1;SDS_P2;PMS_P1;PMS_P2;Temp;Humidity;BMP_temperature;BMP_pressure;BME280_temperature;BME280_humidity;BME280_pressure;Samples;Min_cycle;Max_cycle;Signal;HPM_P1;HPM_P2
2022/05/08 00:01:35;;;;;;;12.07;5.70;;;;;;;16.18;54.33;102552.69;4900893;28;114539;-78
2022/05/08 00:04:02;;;;;;;12.52;5.85;;;;;;;16.13;54.16;102559.09;4914487;28;122897;-78
2022/05/08 00:06:29;;;;;;;10.65;5.97;;;;;;;16.11;54.29;102558.31;4913717;28;122925;-79
2022/05/08 00:08:57;;;;;;;10.10;5.78;;;;;;;16.10;54.40;102558.34;4910162;28;114713;-79
2022/05/08 00:11:24;;;;;;;11.93;5.88;;;;;;;16.07;54.35;102554.03;4915933;28;116431;-79
2022/05/08 00:13:51;;;;;;;13.88;5.60;;;;;;;16.06;54.37;102552.25;4900704;28;124322;-78
2022/05/08 00:16:18;;;;;;;11.35;5.82;;;;;;;16.04;54.47;102559.47;4910826;28;123528;-79
2022/05/08 00:18:45;;;;;;;10.45;5.35;;;;;;;16.03;54.51;102563.09;4900671;28;114534;-79
2022/05/08 00:21:12;;;;;;;9.13;5.50;;;;;;;16.01;54.48;102562.28;4924920;28;113255;-78
2022/05/08 00:23:39;;;;;;;8.75;6.00;;;;;;;15.98;54.70;102564.22;4922855;28;123536;-79
2022/05/08 00:26:08;;;;;;;10.15;5.55;;;;;;;15.94;54.64;102568.81;4907193;28;125025;-78
2022/05/08 00:28:41;;;;;;;11.25;6.75;;;;;;;15.90;54.61;102561.84;4910588;28;113692;-78
2022/05/08 00:31:09;;;;;;;9.43;6.05;;;;;;;15.87;54.57;102561.97;4898017;28;114937;-78
2022/05/08 00:33:37;;;;;;;14.63;6.25;;;;;;;15.85;54.73;102563.84;4896451;28;124795;-79
2022/05/08 00:36:05;;;;;;;11.20;6.47;;;;;;;15.83;54.86;102560.34;4909881;28;122809;-78
2022/05/08 00:38:32;;;;;;;12.57;6.72;;;;;;;15.79;54.71;102566.75;4908966;28;114276;-79
2022/05/08 00:40:59;;;;;;;15.13;7.65;;;;;;;15.75;54.66;102574.00;4908942;28;113888;-79
2022/05/08 00:43:32;;;;;;;11.85;6.85;;;;;;;15.69;54.83;102564.41;4894174;28;124356;-79
2022/05/08 00:46:11;;;;;;;10.82;6.50;;;;;;;15.65;54.82;102568.13;4909812;28;123552;-79
2022/05/08 00:48:41;;;;;;;9.05;6.13;;;;;;;15.61;54.82;102571.81;4906708;28;114581;-79
2022/05/08 00:51:11;;;;;;;11.55;6.78;;;;;;;15.60;54.84;102572.78;4915416;28;112537;-79
2022/05/08 00:53:43;;;;;;;10.82;6.43;;;;;;;15.56;54.89;102565.81;4901470;28;123794;-79
2022/05/08 00:56:11;;;;;;;10.00;6.32;;;;;;;15.56;54.88;102573.81;4893033;28;123171;-79
2022/05/08 00:58:40;;;;;;;9.88;5.90;;;;;;;15.53;54.96;102564.13;4912658;28;114025;-79
2022/05/08 01:01:09;;;;;;;12.57;6.55;;;;;;;15.50;54.84;102574.03;4903839;28;114001;-79
2022/05/08 01:03:38;;;;;;;10.98;5.90;;;;;;;15.46;54.90;102567.06;4897934;28;123771;-78
2022/05/08 01:06:08;;;;;;;9.68;5.85;;;;;;;15.42;54.99;102566.31;4911086;28;123095;-78
2022/05/08 01:08:37;;;;;;;11.82;6.00;;;;;;;15.37;54.91;102571.84;4896887;28;113483;-78
2022/05/08 01:11:07;;;;;;;11.55;5.78;;;;;;;15.31;55.03;102566.75;4908484;28;112444;-79
2022/05/08 01:13:35;;;;;;;10.30;5.82;;;;;;;15.27;54.89;102564.22;4900891;28;123984;-79
2022/05/08 01:16:06;;;;;;;10.55;5.63;;;;;;;15.23;55.07;102566.13;4895422;28;123846;-78
2022/05/08 01:18:38;;;;;;;12.63;6.90;;;;;;;15.19;55.15;102567.19;4893223;28;114947;-79
2022/05/08 01:21:10;;;;;;;15.57;6.68;;;;;;;15.15;55.32;102568.22;4920907;28;113885;-79
2022/05/08 01:23:38;;;;;;;10.43;6.10;;;;;;;15.14;55.34;102566.47;4908044;28;123317;-78
2022/05/08 01:26:06;;;;;;;13.02;6.07;;;;;;;15.10;55.44;102570.19;4893444;28;123735;-79
2022/05/08 01:28:34;;;;;;;10.88;6.03;;;;;;;15.07;55.39;102576.53;4924508;28;113551;-78
2022/05/08 01:31:01;;;;;;;11.00;5.65;;;;;;;15.05;55.48;102577.47;4907805;28;113751;-78
2022/05/08 01:33:28;;;;;;;12.52;6.18;;;;;;;15.02;55.40;102578.47;4911163;28;123361;-79
2022/05/08 01:36:01;;;;;;;13.18;6.10;;;;;;;15.01;55.39;102575.84;4915110;28;123745;-79
2022/05/08 01:38:28;;;;;;;11.82;6.40;;;;;;;14.98;55.58;102576.84;4917386;28;113334;-79
2022/05/08 01:40:55;;;;;;;11.43;6.13;;;;;;;14.95;55.63;102577.81;4917351;28;114171;-79
2022/05/08 01:43:23;;;;;;;10.25;5.97;;;;;;;14.93;55.42;102585.00;4933222;28;122437;-78
2022/05/08 01:45:54;;;;;;;11.70;5.88;;;;;;;14.91;55.81;102580.66;4933290;28;124182;-79
2022/05/08 01:48:21;;;;;;;14.70;6.40;;;;;;;14.88;55.57;102584.31;4915122;28;113492;-78
2022/05/08 01:50:54;;;;;;;12.00;6.53;;;;;;;14.88;55.60;102592.31;4908143;28;112373;-77
2022/05/08 01:53:23;;;;;;;12.60;6.40;;;;;;;14.89;55.61;102593.19;4909750;28;123563;-77
2022/05/08 01:55:54;;;;;;;10.80;6.13;;;;;;;14.87;55.58;102595.91;4898029;28;123935;-78
2022/05/08 01:58:23;;;;;;;10.88;5.80;;;;;;;14.86;55.58;102594.16;4915657;28;113671;-78
2022/05/08 02:00:51;;;;;;;12.57;6.25;;;;;;;14.83;55.62;102593.41;4913804;28;111838;-78
2022/05/08 02:03:20;;;;;;;13.73;5.80;;;;;;;14.80;55.47;102594.38;4911326;28;123023;-78
2022/05/08 02:05:48;;;;;;;12.13;6.45;;;;;;;14.76;55.41;102603.41;4910590;28;124179;-78
2022/05/08 02:08:16;;;;;;;13.90;6.60;;;;;;;14.69;55.44;102601.84;4898617;28;115210;-78
2022/05/08 02:10:44;;;;;;;12.63;6.30;;;;;;;14.63;55.34;102604.75;4896086;28;114323;-78
2022/05/08 02:13:12;;;;;;;13.43;5.95;;;;;;;14.58;55.38;102604.91;4911580;28;122616;-79
2022/05/08 02:15:39;;;;;;;13.10;6.13;;;;;;;14.55;55.36;102611.16;4899343;28;124837;-77
2022/05/08 02:18:12;;;;;;;14.48;6.78;;;;;;;14.53;55.43;102615.69;4912830;28;114314;-77
2022/05/08 02:20:40;;;;;;;15.27;6.38;;;;;;;14.49;55.47;102611.38;4924218;28;113379;-78
2022/05/08 02:23:08;;;;;;;15.27;6.45;;;;;;;14.45;55.60;102607.06;4896465;28;123968;-78
2022/05/08 02:25:36;;;;;;;15.63;6.88;;;;;;;14.43;55.45;102611.59;4927330;28;123724;-78
2022/05/08 02:28:04;;;;;;;14.32;6.47;;;;;;;14.39;55.62;102610.81;4926658;28;113527;-78
2022/05/08 02:30:31;;;;;;;12.60;6.35;;;;;;;14.37;55.76;102606.44;4895458;28;114865;-78
2022/05/08 02:33:00;;;;;;;13.27;6.45;;;;;;;14.36;55.62;102607.38;4910087;28;123465;-78
2022/05/08 02:35:28;;;;;;;17.42;6.65;;;;;;;14.33;55.46;102618.13;4910256;28;124186;-78
2022/05/08 02:37:55;;;;;;;12.32;6.13;;;;;;;14.30;55.78;102616.44;4896904;28;114223;-78
2022/05/08 02:40:23;;;;;;;15.93;6.82;;;;;;;14.29;55.68;102614.69;4893613;28;112339;-79
2022/05/08 02:42:52;;;;;;;15.50;7.03;;;;;;;14.26;55.58;102609.47;4925647;28;123375;-79
2022/05/08 02:45:20;;;;;;;17.05;6.68;;;;;;;14.23;55.71;102619.34;4903452;28;123232;-78
2022/05/08 02:47:47;;;;;;;15.60;6.00;;;;;;;14.20;55.78;102618.53;4922385;28;110781;-77
2022/05/08 02:50:14;;;;;;;13.70;6.50;;;;;;;14.19;55.76;102619.44;4915240;28;113378;-77
2022/05/08 02:52:43;;;;;;;14.60;6.45;;;;;;;14.18;55.70;102616.81;4900182;28;124227;-77
2022/05/08 03:00:46;;;;;;;12.63;5.78;;;;;;;14.15;55.73;102607.13;4896739;28;114969;-78
2022/05/08 03:03:15;;;;;;;12.43;5.60;;;;;;;14.15;55.86;102612.47;4908649;28;123866;-78
2022/05/08 03:05:47;;;;;;;16.10;6.30;;;;;;;14.16;55.87;102608.88;4914187;28;123037;-78
2022/05/08 03:08:17;;;;;;;19.55;6.25;;;;;;;14.17;55.67;102615.97;4914352;28;114023;-78
2022/05/08 03:13:37;;;;;;;16.98;6.10;;;;;;;14.13;55.61;102614.31;4892384;28;123585;-78
2022/05/08 03:16:07;;;;;;;17.83;5.65;;;;;;;14.13;55.69;102613.44;4914288;28;123483;-78
2022/05/08 03:18:35;;;;;;;14.50;5.75;;;;;;;14.11;55.63;102610.84;4894637;28;114034;-78
2022/05/08 03:21:02;;;;;;;15.50;6.00;;;;;;;14.09;55.51;102606.44;4911391;28;112968;-78
2022/05/08 03:23:31;;;;;;;19.40;5.70;;;;;;;14.08;55.39;102610.91;4916773;28;124417;-78
2022/05/08 03:25:59;;;;;;;16.15;5.80;;;;;;;14.06;55.57;102612.75;4911126;28;123876;-77
2022/05/08 03:28:27;;;;;;;15.02;4.70;;;;;;;14.03;55.48;102612.84;4900464;28;114363;-78
2022/05/08 03:30:54;;;;;;;18.80;5.40;;;;;;;13.97;55.47;102618.38;4911043;28;113654;-79
2022/05/08 03:33:21;;;;;;;14.30;5.03;;;;;;;13.93;55.61;102611.41;4899496;28;124177;-78
2022/05/08 03:35:48;;;;;;;15.80;5.43;;;;;;;13.89;55.38;102621.28;4914100;28;122934;-76
2022/05/08 03:38:15;;;;;;;15.10;4.70;;;;;;;13.87;55.52;102624.91;4901332;28;113326;-78
2022/05/08 03:40:42;;;;;;;14.48;3.95;;;;;;;13.86;55.36;102623.16;4911429;28;114213;-78
2022/05/08 03:43:09;;;;;;;16.27;4.30;;;;;;;13.85;55.37;102634.75;4917951;28;124433;-79
2022/05/08 03:45:36;;;;;;;12.63;4.43;;;;;;;13.81;55.42;102628.63;4897478;28;124484;-79
2022/05/08 03:48:04;;;;;;;12.68;4.53;;;;;;;13.78;55.22;102626.91;4918474;28;115380;-79
2022/05/08 03:50:31;;;;;;;16.13;4.63;;;;;;;13.77;55.24;102621.66;4932961;28;113054;-78
2022/05/08 03:53:01;;;;;;;14.35;4.28;;;;;;;13.76;55.39;102631.41;4928422;28;123753;-78
2022/05/08 03:55:29;;;;;;;10.82;3.75;;;;;;;13.74;55.03;102627.94;4931994;28;124180;-78
2022/05/08 03:57:56;;;;;;;17.38;4.28;;;;;;;13.71;55.17;102621.81;4904953;28;113322;-78
2022/05/08 04:00:23;;;;;;;16.17;4.47;;;;;;;13.69;55.31;102624.53;4898820;28;114635;-78
2022/05/08 04:02:50;;;;;;;12.10;3.97;;;;;;;13.65;55.31;102622.88;4927469;28;124156;-78
2022/05/08 04:05:17;;;;;;;12.60;3.90;;;;;;;13.64;55.27;102621.16;4910568;28;124013;-77
2022/05/08 04:07:44;;;;;;;12.25;3.67;;;;;;;13.61;54.93;102623.88;4914071;28;113803;-78
2022/05/08 04:10:12;;;;;;;13.88;3.38;;;;;;;13.57;55.03;102630.22;4910385;28;113337;-79
2022/05/08 04:12:42;;;;;;;12.85;4.43;;;;;;;13.55;55.33;102632.06;4910866;28;124277;-78
2022/05/08 04:17:58;;;;;;;12.85;3.80;;;;;;;13.52;55.08;102633.00;4909796;28;113747;-78
2022/05/08 04:20:26;;;;;;;13.57;3.70;;;;;;;13.50;55.04;102628.66;4909587;28;112539;-78
2022/05/08 04:25:38;;;;;;;15.65;3.55;;;;;;;13.49;55.37;102642.88;4912693;28;123222;-78
2022/05/08 04:28:05;;;;;;;16.40;3.85;;;;;;;13.49;55.25;102640.22;4923589;28;112345;-79
2022/05/08 04:30:33;;;;;;;11.93;3.20;;;;;;;13.48;55.20;102643.78;4930389;28;115120;-78
2022/05/08 04:33:00;;;;;;;13.57;3.65;;;;;;;13.47;55.10;102642.03;4900337;28;124822;-78
2022/05/08 04:35:28;;;;;;;12.57;3.30;;;;;;;13.48;55.09;102646.44;4938277;28;123095;-77
2022/05/08 04:37:55;;;;;;;12.07;3.35;;;;;;;13.47;55.41;102644.69;4922471;28;113605;-78
2022/05/08 04:40:23;;;;;;;15.77;4.15;;;;;;;13.47;55.15;102639.38;4909433;28;114235;-78
2022/05/08 04:42:50;;;;;;;15.98;3.88;;;;;;;13.47;54.97;102644.69;4909273;28;123432;-78
2022/05/08 04:45:17;;;;;;;14.32;3.70;;;;;;;13.48;54.95;102649.13;4897054;28;123699;-78
2022/05/08 04:47:44;;;;;;;11.88;3.38;;;;;;;13.49;54.84;102658.88;4917938;28;114230;-78
2022/05/08 04:50:11;;;;;;;11.77;3.25;;;;;;;13.50;54.95;102657.94;4903535;28;114551;-78
2022/05/08 04:52:38;;;;;;;13.65;3.40;;;;;;;13.53;55.16;102657.84;4912910;28;123151;-78
2022/05/08 04:55:06;;;;;;;14.63;3.25;;;;;;;13.56;54.91;102660.41;4922373;28;122528;-79
2022/05/08 04:57:33;;;;;;;12.60;3.22;;;;;;;13.57;54.81;102654.19;4927968;28;114325;-78
2022/05/08 05:00:00;;;;;;;11.07;3.40;;;;;;;13.59;54.95;102650.53;4941075;28;113128;-78
2022/05/08 05:02:28;;;;;;;14.10;3.33;;;;;;;13.62;54.71;102658.47;4934441;28;121877;-78
2022/05/08 05:04:57;;;;;;;10.27;3.08;;;;;;;13.63;54.44;102661.97;4930984;28;122044;-78
2022/05/08 05:07:24;;;;;;;15.75;3.67;;;;;;;13.64;54.63;102661.09;4934797;28;113668;-79
2022/05/08 05:09:51;;;;;;;16.35;3.80;;;;;;;13.67;54.45;102657.44;4923557;28;113438;-78
2022/05/08 05:12:19;;;;;;;14.77;3.08;;;;;;;13.70;54.60;102663.56;4925590;28;124061;-78
2022/05/08 05:14:51;;;;;;;10.77;3.28;;;;;;;13.74;54.27;102675.00;4908092;28;121910;-78
2022/05/08 05:17:18;;;;;;;15.98;3.40;;;;;;;13.79;54.42;102668.63;4915075;28;113950;-78
2022/05/08 05:19:45;;;;;;;11.50;3.33;;;;;;;13.81;54.21;102677.44;4920458;28;114059;-78
2022/05/08 05:22:12;;;;;;;14.82;3.55;;;;;;;13.82;53.91;102684.53;4903627;28;124550;-78
2022/05/08 05:24:40;;;;;;;15.35;3.50;;;;;;;13.84;54.09;102679.13;4902709;28;122963;-78
2022/05/08 05:27:08;;;;;;;9.13;2.88;;;;;;;13.84;53.83;102679.13;4922001;28;113012;-79
2022/05/08 05:29:35;;;;;;;12.63;2.78;;;;;;;13.89;53.70;102689.66;4906816;28;114357;-79
2022/05/08 05:32:02;;;;;;;13.20;3.35;;;;;;;13.93;53.66;102683.31;4931823;28;125611;-77
2022/05/08 05:34:29;;;;;;;12.00;2.97;;;;;;;13.97;53.89;102692.97;4906459;28;124220;-77
2022/05/08 05:36:57;;;;;;;15.65;3.15;;;;;;;14.02;53.90;102693.72;4910515;28;115316;-78
2022/05/08 05:39:24;;;;;;;16.15;3.25;;;;;;;14.07;53.67;102697.13;4931309;28;112820;-79
2022/05/08 05:41:51;;;;;;;18.80;2.88;;;;;;;14.10;53.59;102704.13;4918712;28;123839;-78
2022/05/08 05:44:18;;;;;;;11.10;2.83;;;;;;;14.12;53.56;102696.97;4914397;28;123799;-80
2022/05/08 05:49:31;;;;;;;12.43;2.70;;;;;;;14.21;53.35;102710.88;4910534;28;113414;-76
2022/05/08 05:51:58;;;;;;;16.83;3.38;;;;;;;14.24;53.09;102719.69;4899837;28;124523;-76
2022/05/08 05:54:25;;;;;;;13.10;2.50;;;;;;;14.28;53.34;102718.66;4903076;28;124007;-76
2022/05/08 05:56:52;;;;;;;12.90;3.10;;;;;;;14.34;53.30;102719.38;4900979;28;115124;-76
2022/05/08 05:59:19;;;;;;;11.05;2.85;;;;;;;14.40;53.04;102723.66;4901240;28;113693;-76
2022/05/08 06:02:06;;;;;;;12.77;3.05;;;;;;;14.46;53.08;102727.91;4908199;28;123373;-76
2022/05/08 06:04:34;;;;;;;14.10;2.83;;;;;;;14.50;52.99;102725.09;4897895;28;124035;-77
2022/05/08 06:07:01;;;;;;;15.27;2.85;;;;;;;14.52;52.95;102730.38;4891160;28;113000;-77
2022/05/08 06:09:28;;;;;;;14.30;2.85;;;;;;;14.55;52.76;102728.50;4910881;28;113709;-76
2022/05/08 06:11:55;;;;;;;13.48;3.10;;;;;;;14.58;52.33;102739.09;4922788;28;125103;-76
2022/05/08 06:14:22;;;;;;;14.13;3.00;;;;;;;14.60;52.60;102737.25;4913653;28;123726;-76
2022/05/08 06:16:49;;;;;;;13.68;3.33;;;;;;;14.64;52.46;102735.38;4898472;28;113745;-76
2022/05/08 06:19:16;;;;;;;13.50;2.90;;;;;;;14.67;52.37;102737.06;4898617;28;115006;-77
2022/05/08 06:21:50;;;;;;;10.15;2.63;;;;;;;14.69;52.43;102740.53;4900317;28;124184;-77
2022/05/08 06:24:17;;;;;;;14.10;3.45;;;;;;;14.70;52.18;102737.84;4914020;28;123487;-76
2022/05/08 06:26:44;;;;;;;9.18;2.78;;;;;;;14.68;51.98;102738.81;4909388;28;114556;-77
2022/05/08 06:29:11;;;;;;;10.27;2.70;;;;;;;14.67;52.04;102742.41;4905128;28;114496;-76
2022/05/08 06:31:39;;;;;;;15.77;3.17;;;;;;;14.67;52.04;102745.91;4925499;28;122390;-77
2022/05/08 06:34:06;;;;;;;12.13;2.85;;;;;;;14.70;52.00;102742.31;4914166;28;123795;-77
2022/05/08 06:36:34;;;;;;;9.27;2.47;;;;;;;14.74;52.02;102743.94;4913554;28;114186;-76
2022/05/08 06:39:01;;;;;;;11.57;2.70;;;;;;;14.75;51.80;102751.03;4895424;28;113358;-76
2022/05/08 06:41:28;;;;;;;12.27;3.05;;;;;;;14.77;51.85;102743.84;4927385;28;123491;-76
2022/05/08 06:43:55;;;;;;;11.60;2.88;;;;;;;14.83;51.90;102749.00;4912069;28;123882;-77
2022/05/08 06:46:22;;;;;;;14.85;2.60;;;;;;;14.88;51.32;102746.16;4915173;28;114894;-77
2022/05/08 06:48:50;;;;;;;15.23;3.05;;;;;;;14.91;51.61;102752.28;4914624;28;114142;-77
2022/05/08 06:51:17;;;;;;;10.63;2.75;;;;;;;14.95;51.43;102748.56;4913723;28;123939;-76
2022/05/08 06:53:44;;;;;;;14.02;2.97;;;;;;;15.01;51.57;102751.97;4928187;28;123457;-76
2022/05/08 06:56:13;;;;;;;12.10;2.90;;;;;;;15.07;51.27;102757.09;4914068;28;114225;-76
2022/05/08 07:01:38;;;;;;;11.88;2.38;;;;;;;15.18;51.05;102755.84;4911485;28;123777;-76
2022/05/08 07:04:07;;;;;;;12.60;3.10;;;;;;;15.25;51.05;102758.28;4911776;28;124684;-76
2022/05/08 07:06:36;;;;;;;13.73;3.03;;;;;;;15.30;50.95;102754.53;4913268;28;116256;-77
2022/05/08 07:09:13;;;;;;;13.55;3.10;;;;;;;15.40;50.96;102762.22;4928033;28;114113;-77
2022/05/08 07:11:41;;;;;;;9.57;2.88;;;;;;;15.48;50.78;102766.41;4927581;28;123527;-77
2022/05/08 07:14:11;;;;;;;11.68;2.53;;;;;;;15.53;50.58;102766.22;4912932;28;123922;-77
2022/05/08 07:16:38;;;;;;;12.40;2.80;;;;;;;15.59;50.41;102771.34;4896533;28;113228;-77
2022/05/08 07:19:06;;;;;;;11.82;2.75;;;;;;;15.60;50.12;102773.09;4913788;28;114103;-77
2022/05/08 07:21:33;;;;;;;10.07;2.50;;;;;;;15.63;50.20;102778.31;4913114;28;123660;-76
2022/05/08 07:24:00;;;;;;;10.75;2.70;;;;;;;15.68;50.03;102781.69;4929043;28;122701;-77
2022/05/08 07:26:27;;;;;;;12.48;3.03;;;;;;;15.72;50.17;102777.97;4896594;28;114571;-77
2022/05/08 07:28:54;;;;;;;11.13;2.72;;;;;;;15.76;49.61;102785.03;4913707;28;113919;-77
2022/05/08 07:31:21;;;;;;;12.25;2.67;;;;;;;15.77;49.60;102773.38;4896629;28;123965;-76
2022/05/08 07:36:12;;;;;;;13.77;3.00;;;;;;;15.80;49.26;102774.19;4928146;28;122915;-76
2022/05/08 07:36:35;;;;;;;10.95;2.78;;;;;;;15.77;48.93;102781.41;4912969;28;114658;-75
2022/05/08 07:39:03;;;;;;;11.85;2.22;;;;;;;15.79;49.27;102777.81;4914250;28;113886;-75
2022/05/08 07:41:30;;;;;;;10.02;2.42;;;;;;;15.82;49.40;102767.88;4914272;28;123994;-75
2022/05/08 07:43:57;;;;;;;9.05;2.25;;;;;;;15.87;49.28;102776.59;4928579;28;122570;-77
2022/05/08 07:46:25;;;;;;;9.50;2.90;;;;;;;15.94;49.15;102771.91;4913746;28;112528;-75
2022/05/08 07:48:53;;;;;;;13.80;2.63;;;;;;;16.00;49.21;102777.03;4896401;28;113907;-76
2022/05/08 07:51:20;;;;;;;9.43;2.60;;;;;;;16.09;49.15;102781.16;4896544;28;123980;-75
2022/05/08 07:53:47;;;;;;;8.25;2.63;;;;;;;16.21;49.20;102782.50;4897760;28;122779;-76
2022/05/08 07:56:15;;;;;;;14.63;2.80;;;;;;;16.32;49.27;102785.63;4896751;28;113650;-75
2022/05/08 07:58:42;;;;;;;11.70;2.40;;;;;;;16.43;49.16;102775.41;4929096;28;113621;-76
2022/05/08 08:01:10;;;;;;;10.70;2.50;;;;;;;16.55;48.97;102780.25;4911891;28;124153;-75
2022/05/08 08:03:37;;;;;;;12.23;2.50;;;;;;;16.62;48.71;102788.06;4912581;28;124764;-76
2022/05/08 08:06:04;;;;;;;9.05;2.45;;;;;;;16.66;48.11;102787.88;4929165;28;113933;-76
2022/05/08 08:08:37;;;;;;;9.85;2.30;;;;;;;16.65;47.93;102782.56;4896475;28;113775;-76
2022/05/08 08:11:05;;;;;;;12.75;2.50;;;;;;;16.64;47.64;102783.53;4928034;28;124119;-75
2022/05/08 08:13:34;;;;;;;9.45;2.45;;;;;;;16.62;47.66;102777.38;4897501;28;123203;-76
2022/05/08 08:16:06;;;;;;;10.73;2.33;;;;;;;16.63;47.65;102782.66;4913150;28;113712;-76
2022/05/08 08:18:36;;;;;;;7.47;2.10;;;;;;;16.66;48.03;102781.66;4906802;28;113162;-76
2022/05/08 08:21:09;;;;;;;13.70;2.70;;;;;;;16.70;47.97;102781.47;4918623;28;123850;-76
2022/05/08 08:23:37;;;;;;;11.13;2.40;;;;;;;16.78;47.74;102786.50;4915051;28;124327;-76
2022/05/08 08:26:04;;;;;;;12.80;2.47;;;;;;;16.83;47.82;102789.91;4930452;28;114152;-76
2022/05/08 08:28:31;;;;;;;8.82;2.35;;;;;;;16.95;47.51;102793.00;4901943;28;113772;-76
2022/05/08 08:30:59;;;;;;;7.15;2.30;;;;;;;17.06;47.18;102790.78;4923882;28;124265;-76
2022/05/08 08:33:26;;;;;;;10.95;2.47;;;;;;;17.13;47.15;102792.25;4901536;28;123117;-77
2022/05/08 08:35:53;;;;;;;9.48;2.38;;;;;;;17.22;47.20;102791.88;4914980;28;114341;-77
2022/05/08 08:38:20;;;;;;;10.45;3.00;;;;;;;17.34;47.28;102789.63;4929177;28;114035;-76
2022/05/08 08:40:49;;;;;;;8.15;2.40;;;;;;;17.47;46.40;102796.19;4896062;28;125164;-78
2022/05/08 08:43:17;;;;;;;9.95;2.38;;;;;;;17.56;46.36;102784.22;4896640;28;123326;-76
2022/05/08 08:48:32;;;;;;;11.00;2.40;;;;;;;17.73;45.83;102791.53;4913115;28;114713;-76
2022/05/08 08:51:02;;;;;;;10.05;2.60;;;;;;;17.80;46.31;102790.28;4894234;28;124181;-77
2022/05/08 08:53:30;;;;;;;9.82;2.45;;;;;;;17.91;46.33;102785.34;4910198;28;123155;-76
2022/05/08 08:55:59;;;;;;;8.50;2.80;;;;;;;18.03;45.94;102790.19;4909687;28;114823;-76
2022/05/08 08:58:26;;;;;;;9.50;2.22;;;;;;;18.09;45.33;102784.53;4912606;28;113667;-76
2022/05/08 09:00:53;;;;;;;8.25;2.30;;;;;;;18.17;45.54;102777.94;4925974;28;123271;-76
2022/05/08 09:03:26;;;;;;;6.30;2.13;;;;;;;18.25;46.01;102783.81;4894276;28;122734;-76
2022/05/08 09:05:58;;;;;;;9.30;2.38;;;;;;;18.37;45.50;102793.97;4910144;28;114315;-76
2022/05/08 09:08:29;;;;;;;11.80;2.50;;;;;;;18.42;44.70;102791.97;4911862;28;113899;-76
2022/05/08 09:10:58;;;;;;;10.20;2.30;;;;;;;18.44;44.80;102792.75;4909531;28;125410;-76
2022/05/08 09:13:27;;;;;;;7.30;2.10;;;;;;;18.47;44.35;102789.91;4910940;28;123538;-76
2022/05/08 09:16:07;;;;;;;8.38;2.33;;;;;;;18.51;44.10;102785.28;4912012;28;114571;-77
2022/05/08 09:18:48;;;;;;;7.25;2.25;;;;;;;18.56;44.61;102787.75;4894424;28;112303;-76
2022/05/08 09:24:11;;;;;;;12.27;2.72;;;;;;;18.72;44.69;102782.50;4893361;28;123255;-76
2022/05/08 09:26:40;;;;;;;7.10;2.35;;;;;;;18.79;44.58;102797.38;4926313;28;114415;-76
2022/05/08 09:29:07;;;;;;;7.55;2.17;;;;;;;18.85;43.85;102800.69;4926265;28;113215;-76
2022/05/08 09:31:42;;;;;;;11.55;2.38;;;;;;;18.87;43.12;102797.91;4893463;28;124505;-75
2022/05/08 09:34:14;;;;;;;6.32;2.28;;;;;;;18.84;42.75;102781.94;4908494;28;124216;-76
2022/05/08 09:36:42;;;;;;;9.82;2.60;;;;;;;18.80;43.00;102786.59;4893211;28;114675;-75
2022/05/08 09:39:09;;;;;;;10.75;2.50;;;;;;;18.81;43.05;102788.31;4911156;28;114478;-76
2022/05/08 09:41:39;;;;;;;7.93;2.67;;;;;;;18.89;43.61;102795.13;4892900;28;122884;-76
2022/05/08 09:44:13;;;;;;;9.63;2.60;;;;;;;18.98;43.09;102783.94;4909586;28;123421;-76
2022/05/08 09:46:48;;;;;;;7.03;2.28;;;;;;;19.05;42.88;102790.75;4894003;28;114432;-77
2022/05/08 09:49:24;;;;;;;4.32;1.88;;;;;;;19.08;42.64;102785.25;4893850;28;113360;-76
2022/05/08 09:51:53;;;;;;;7.95;2.42;;;;;;;19.12;42.17;102780.56;4908614;28;124516;-76
2022/05/08 09:54:20;;;;;;;6.43;2.40;;;;;;;19.14;42.45;102779.56;4911252;28;123887;-76
2022/05/08 09:56:49;;;;;;;11.70;3.13;;;;;;;19.14;42.62;102778.69;4894095;28;114277;-76
2022/05/08 09:59:16;;;;;;;7.57;2.00;;;;;;;19.19;42.16;102777.53;4911605;28;113714;-76
2022/05/08 10:01:43;;;;;;;8.05;2.20;;;;;;;19.24;42.27;102780.81;4892871;28;124291;-76
2022/05/08 10:04:11;;;;;;;7.65;2.28;;;;;;;19.28;42.31;102769.94;4911373;28;123571;-77
2022/05/08 10:06:41;;;;;;;7.18;2.50;;;;;;;19.36;42.63;102773.06;4913859;28;114553;-76
2022/05/08 10:14:49;;;;;;;7.57;2.55;;;;;;;19.51;42.42;102772.28;4910601;28;124070;-76
2022/05/08 10:17:28;;;;;;;6.65;2.00;;;;;;;19.57;42.11;102766.59;4891731;28;114078;-76
2022/05/08 10:19:56;;;;;;;8.13;2.60;;;;;;;19.64;41.57;102773.38;4894925;28;113353;-75
2022/05/08 10:22:24;;;;;;;12.15;2.22;;;;;;;19.69;41.19;102766.91;4896588;28;124011;-75
2022/05/08 10:24:54;;;;;;;8.95;2.53;;;;;;;19.73;41.11;102768.50;4896707;28;122970;-75
2022/05/08 10:27:28;;;;;;;5.72;2.03;;;;;;;19.78;41.24;102763.78;4913444;28;115055;-76
2022/05/08 10:29:55;;;;;;;7.90;2.78;;;;;;;19.84;41.47;102760.75;4910533;28;114905;-75
2022/05/08 10:32:32;;;;;;;7.38;2.50;;;;;;;19.89;41.10;102758.69;4910627;28;123535;-75
2022/05/08 10:35:25;;;;;;;6.20;2.20;;;;;;;19.92;41.14;102750.44;4904500;28;124362;-75
2022/05/08 10:38:16;;;;;;;8.27;2.60;;;;;;;19.96;40.96;102757.38;4897453;28;114612;-75
2022/05/08 10:40:43;;;;;;;6.15;2.65;;;;;;;19.99;40.66;102751.84;4910660;28;113176;-75
2022/05/08 10:43:10;;;;;;;6.57;1.98;;;;;;;20.03;40.69;102748.03;4910056;28;122978;-75
2022/05/08 10:45:43;;;;;;;6.05;2.30;;;;;;;20.06;40.82;102756.88;4900024;28;123422;-76
2022/05/08 10:48:15;;;;;;;9.63;2.40;;;;;;;20.09;40.90;102751.34;4925297;28;114163;-76
2022/05/08 10:50:53;;;;;;;7.20;2.30;;;;;;;20.14;40.41;102749.28;4907430;28;114361;-77
2022/05/08 10:53:21;;;;;;;5.63;2.50;;;;;;;20.16;40.67;102744.69;4898506;28;123854;-76
2022/05/08 10:55:49;;;;;;;9.60;2.38;;;;;;;20.18;40.57;102740.06;4908769;28;122987;-76
2022/05/08 10:58:17;;;;;;;7.53;2.00;;;;;;;20.21;40.49;102743.47;4911912;28;113455;-76
2022/05/08 11:00:47;;;;;;;6.00;2.35;;;;;;;20.27;40.34;102736.88;4908850;28;113641;-75
2022/05/08 11:03:21;;;;;;;8.35;2.30;;;;;;;20.31;40.27;102730.34;4908983;28;122788;-76
2022/05/08 11:05:49;;;;;;;5.35;2.30;;;;;;;20.36;40.59;102728.28;4891652;28;124070;-75
2022/05/08 11:08:31;;;;;;;8.32;2.75;;;;;;;20.42;40.59;102733.31;4914163;28;113615;-76
2022/05/08 11:11:08;;;;;;;8.70;2.53;;;;;;;20.48;40.06;102736.63;4891430;28;113528;-75
2022/05/08 11:13:44;;;;;;;7.38;2.40;;;;;;;20.52;39.83;102732.78;4889365;28;123579;-75
2022/05/08 11:16:13;;;;;;;5.68;2.42;;;;;;;20.58;39.79;102743.19;4890890;28;123925;-75
2022/05/08 11:18:40;;;;;;;6.47;2.30;;;;;;;20.63;39.61;102735.78;4924723;28;114301;-76
2022/05/08 11:21:11;;;;;;;6.68;2.40;;;;;;;20.69;39.51;102740.78;4915764;28;114588;-75
2022/05/08 11:23:42;;;;;;;8.48;2.58;;;;;;;20.73;40.16;102742.34;4908304;28;123920;-76
2022/05/08 11:26:11;;;;;;;6.85;2.33;;;;;;;20.79;39.88;102742.00;4908532;28;122381;-76
2022/05/08 11:28:55;;;;;;;7.10;2.10;;;;;;;20.86;39.90;102736.25;4894166;28;114116;-75
2022/05/08 11:31:26;;;;;;;6.78;2.60;;;;;;;20.97;40.29;102739.19;4906251;28;114054;-76
2022/05/08 11:36:41;;;;;;;4.97;1.90;;;;;;;21.13;38.91;102734.59;4908761;28;123595;-76
2022/05/08 11:39:17;;;;;;;8.90;2.70;;;;;;;21.16;38.68;102734.44;4908669;28;113876;-76
2022/05/08 11:41:49;;;;;;;8.52;2.50;;;;;;;21.17;38.50;102725.41;4924478;28;112721;-75
2022/05/08 11:44:23;;;;;;;7.05;2.25;;;;;;;21.19;38.74;102728.88;4905422;28;124036;-75
2022/05/08 11:46:55;;;;;;;6.27;2.17;;;;;;;21.25;38.81;102715.97;4905519;28;124162;-76
2022/05/08 11:49:32;;;;;;;5.50;2.35;;;;;;;21.33;38.90;102724.47;4927819;28;113974;-75
2022/05/08 11:52:03;;;;;;;7.45;2.13;;;;;;;21.41;38.78;102722.16;4907848;28;113359;-75
2022/05/08 11:54:34;;;;;;;5.78;2.30;;;;;;;21.45;38.25;102718.34;4908901;28;124287;-75